Time;durP1;ratioP1;P1;durP2;ratioP2;P2;SDS_P1;SDS_P2;PMS_P1;PMS_P2;Temp;Humidity;BMP_temperature;BMP_pressure;BME280_temperature;BME280_humidity;BME280_pressure;Samples;Min_cycle;Max_cycle;Signal;HPM_P1;HPM_P2
2023/01/28 00:01:40;;;;;;;10.00;8.80;;;1.60;99.90;;;;;;5116888;27;20437;-63
2023/01/28 00:04:08;;;;;;;11.80;8.27;;;1.60;99.90;;;;;;5118022;28;20896;-63
2023/01/28 00:06:36;;;;;;;12.40;7.77;;;1.60;99.90;;;;;;5118557;28;20891;-63
2023/01/28 00:09:04;;;;;;;9.20;8.07;;;1.60;99.90;;;;;;5118366;28;20740;-63
2023/01/28 00:11:31;;;;;;;9.40;7.90;;;1.50;99.90;;;;;;5131681;27;20589;-63
2023/01/28 00:13:58;;;;;;;8.33;7.47;;;1.60;99.90;;;;;;5138201;27;20521;-63
2023/01/28 00:16:26;;;;;;;9.77;7.60;;;1.60;99.90;;;;;;5138474;27;20553;-63
2023/01/28 00:18:53;;;;;;;9.93;7.93;;;1.60;99.90;;;;;;5137338;27;20470;-63
2023/01/28 00:21:20;;;;;;;8.20;7.37;;;1.50;99.90;;;;;;5129255;27;20542;-63
2023/01/28 00:23:53;;;;;;;10.27;7.87;;;1.50;99.90;;;;;;5118025;28;20452;-63
2023/01/28 00:26:21;;;;;;;8.83;7.17;;;1.50;99.90;;;;;;5118101;28;20524;-63
2023/01/28 00:28:49;;;;;;;8.40;7.47;;;1.50;99.90;;;;;;5119273;27;20898;-63
2023/01/28 00:31:18;;;;;;;10.13;7.30;;;1.40;99.90;;;;;;5138503;27;20959;-63
2023/01/28 00:33:46;;;;;;;8.70;6.93;;;1.50;99.90;;;;;;5132032;27;20458;-63
2023/01/28 00:36:14;;;;;;;8.80;7.30;;;1.40;99.90;;;;;;5117139;28;20892;-63
2023/01/28 00:38:42;;;;;;;8.40;7.50;;;1.40;99.90;;;;;;5118073;28;20471;-63
2023/01/28 00:41:12;;;;;;;8.70;7.37;;;1.40;99.90;;;;;;5133943;27;20810;-63
2023/01/28 00:43:39;;;;;;;9.73;8.17;;;1.40;99.90;;;;;;5137864;27;20464;-63
2023/01/28 00:46:07;;;;;;;10.53;7.53;;;1.40;99.90;;;;;;5138538;27;20507;-63
2023/01/28 00:48:34;;;;;;;8.37;7.47;;;1.40;99.90;;;;;;5138831;27;20553;-62
2023/01/28 00:51:02;;;;;;;9.27;8.27;;;1.40;99.90;;;;;;5128434;27;20798;-63
2023/01/28 00:53:30;;;;;;;10.47;7.73;;;1.30;99.90;;;;;;5130581;27;20437;-62
2023/01/28 00:55:57;;;;;;;9.83;7.70;;;1.30;99.90;;;;;;5117575;28;20751;-63
2023/01/28 00:58:26;;;;;;;9.70;8.27;;;1.30;99.90;;;;;;5117941;28;20466;-63
2023/01/28 01:00:53;;;;;;;9.70;8.07;;;1.30;99.90;;;;;;5123372;28;20450;-63
2023/01/28 01:03:20;;;;;;;9.13;8.23;;;1.30;99.90;;;;;;5137865;28;20549;-63
2023/01/28 01:05:48;;;;;;;9.23;8.17;;;1.20;99.90;;;;;;5138086;28;20458;-63
2023/01/28 01:08:15;;;;;;;10.00;7.63;;;1.20;99.90;;;;;;5138355;27;20454;-63
2023/01/28 01:10:42;;;;;;;10.23;8.33;;;1.20;99.90;;;;;;5141126;27;20857;-63
2023/01/28 01:13:09;;;;;;;9.83;8.37;;;1.20;99.90;;;;;;5121199;28;20483;-63
2023/01/28 01:15:38;;;;;;;9.97;7.90;;;1.20;99.90;;;;;;5121541;28;20451;-63
2023/01/28 01:18:05;;;;;;;10.60;8.73;;;1.30;99.90;;;;;;5121785;28;20520;-63
2023/01/28 01:20:38;;;;;;;12.13;9.40;;;1.30;99.90;;;;;;5121701;28;20478;-63
2023/01/28 01:23:05;;;;;;;10.27;8.30;;;1.30;99.90;;;;;;5137155;27;20871;-62
2023/01/28 01:25:32;;;;;;;10.60;7.73;;;1.30;99.90;;;;;;5141055;27;20508;-63
2023/01/28 01:28:00;;;;;;;9.50;8.40;;;1.30;99.90;;;;;;5141735;27;20480;-63
2023/01/28 01:30:27;;;;;;;9.87;8.37;;;1.20;99.90;;;;;;5142182;27;20524;-63
2023/01/28 01:32:55;;;;;;;9.97;8.97;;;1.30;99.90;;;;;;5129821;27;20515;-63
2023/01/28 01:35:22;;;;;;;12.13;8.47;;;1.20;99.90;;;;;;5122345;27;20783;-63
2023/01/28 01:37:49;;;;;;;9.27;7.90;;;1.20;99.90;;;;;;5142041;27;20458;-63
2023/01/28 01:40:17;;;;;;;12.20;9.00;;;1.30;99.90;;;;;;5141976;27;20465;-63
2023/01/28 01:42:44;;;;;;;10.53;8.70;;;1.30;99.90;;;;;;5135679;27;20915;-63
2023/01/28 01:45:14;;;;;;;9.60;7.43;;;1.20;99.90;;;;;;5121108;28;20895;-62
2023/01/28 01:47:45;;;;;;;9.57;8.57;;;1.20;99.90;;;;;;5121460;28;20464;-63
2023/01/28 01:50:20;;;;;;;11.23;9.10;;;1.20;99.90;;;;;;5121223;28;20876;-62
2023/01/28 01:52:51;;;;;;;8.87;7.97;;;1.20;99.90;;;;;;5122860;27;20479;-62
2023/01/28 01:55:21;;;;;;;8.93;8.03;;;1.20;99.90;;;;;;5141251;27;20894;-62
2023/01/28 01:57:51;;;;;;;10.87;9.13;;;1.20;99.90;;;;;;5141981;27;20463;-63
2023/01/28 02:00:18;;;;;;;10.27;9.20;;;1.20;99.90;;;;;;5141654;27;20437;-63
2023/01/28 02:02:48;;;;;;;12.23;8.67;;;1.10;99.90;;;;;;5141421;27;20469;-63
2023/01/28 02:05:19;;;;;;;12.20;8.60;;;1.10;99.90;;;;;;5122615;27;20468;-63
2023/01/28 02:07:50;;;;;;;13.70;9.30;;;1.20;99.90;;;;;;5120809;28;20426;-63
2023/01/28 02:10:18;;;;;;;10.70;8.60;;;1.20;99.90;;;;;;5121079;28;20872;-63
2023/01/28 02:12:50;;;;;;;15.10;8.43;;;1.20;99.90;;;;;;5120695;28;20536;-63
2023/01/28 02:15:20;;;;;;;9.00;7.83;;;1.20;99.90;;;;;;5135825;27;20603;-63
2023/01/28 02:17:49;;;;;;;11.67;8.17;;;1.10;99.90;;;;;;5141055;27;20458;-63
2023/01/28 02:20:21;;;;;;;9.60;7.80;;;1.10;99.90;;;;;;5139919;27;20454;-63
2023/01/28 02:23:21;;;;;;;10.00;8.50;;;1.10;99.90;;;;;;5140690;27;20474;-63
2023/01/28 02:26:35;;;;;;;11.97;8.70;;;1.10;99.90;;;;;;5123445;27;20919;-63
2023/01/28 02:29:11;;;;;;;8.70;7.80;;;1.10;99.90;;;;;;5113385;28;20457;-63
2023/01/28 02:31:44;;;;;;;12.30;7.97;;;1.10;99.90;;;;;;5120067;28;20770;-63
2023/01/28 02:34:15;;;;;;;8.87;7.97;;;1.10;99.90;;;;;;5120308;28;20792;-63
2023/01/28 02:36:48;;;;;;;9.17;8.03;;;1.00;99.90;;;;;;5119789;28;20435;-63
2023/01/28 02:39:22;;;;;;;9.47;7.80;;;1.00;99.90;;;;;;5119912;28;20888;-63
2023/01/28 02:41:55;;;;;;;8.07;7.27;;;1.10;99.90;;;;;;5120046;28;20462;-63
2023/01/28 02:44:24;;;;;;;8.70;7.73;;;1.10;99.90;;;;;;5120661;28;20460;-63
2023/01/28 02:49:42;;;;;;;8.80;7.90;;;0.90;99.90;;;;;;5128661;27;20510;-63
2023/01/28 02:55:27;;;;;;;10.03;7.80;;;0.90;99.90;;;;;;5139920;27;20451;-63
2023/01/28 02:58:02;;;;;;;8.13;7.33;;;0.90;99.90;;;;;;5129862;27;20433;-63
2023/01/28 03:00:39;;;;;;;8.80;7.87;;;0.80;99.90;;;;;;5120105;27;20478;-63
2023/01/28 03:03:14;;;;;;;8.17;7.30;;;0.90;99.90;;;;;;5119637;28;20789;-63
2023/01/28 03:06:02;;;;;;;8.93;7.50;;;0.90;99.90;;;;;;5119663;28;20867;-63
2023/01/28 03:39:10;;;;;;;10.77;9.67;;;0.70;99.90;;;;;;5122544;27;20800;-63
2023/01/28 03:41:37;;;;;;;10.80;9.60;;;0.70;99.90;;;;;;5139734;27;20880;-64
2023/01/28 03:46:49;;;;;;;11.73;9.30;;;0.80;99.90;;;;;;5139583;27;20430;-64
2023/01/28 03:49:18;;;;;;;10.70;9.10;;;0.90;99.90;;;;;;5136875;27;20436;-63
2023/01/28 03:51:45;;;;;;;11.80;9.77;;;0.90;99.90;;;;;;5118437;27;20479;-63
2023/01/28 03:54:12;;;;;;;10.43;9.30;;;0.80;99.90;;;;;;5119205;28;20463;-64
2023/01/28 03:56:40;;;;;;;12.10;10.00;;;0.80;99.90;;;;;;5118851;28;20471;-64
2023/01/28 03:59:07;;;;;;;10.63;9.53;;;0.80;99.90;;;;;;5118387;28;20459;-64
2023/01/28 04:01:37;;;;;;;10.70;9.53;;;0.80;99.90;;;;;;5135709;27;20459;-64
2023/01/28 04:04:04;;;;;;;11.90;9.43;;;0.80;99.90;;;;;;5139157;27;20459;-64
2023/01/28 04:06:33;;;;;;;13.10;10.40;;;0.80;99.90;;;;;;5139272;27;20466;-64
2023/01/28 04:09:00;;;;;;;11.33;10.10;;;0.70;99.90;;;;;;5138795;27;20465;-64
2023/01/28 04:11:27;;;;;;;12.97;11.67;;;0.60;99.90;;;;;;5125730;27;20488;-64
2023/01/28 04:13:54;;;;;;;12.60;10.87;;;0.60;99.90;;;;;;5118214;28;20509;-64
2023/01/28 04:16:21;;;;;;;12.63;11.33;;;0.70;99.90;;;;;;5118312;27;20459;-64
2023/01/28 04:18:48;;;;;;;13.57;11.20;;;0.70;99.90;;;;;;5118890;28;20514;-64
2023/01/28 04:21:16;;;;;;;15.13;11.50;;;0.80;99.90;;;;;;5124522;27;20433;-63
2023/01/28 04:23:44;;;;;;;15.43;12.20;;;0.80;99.90;;;;;;5138393;27;20462;-63
2023/01/28 04:26:11;;;;;;;12.30;10.40;;;0.80;99.90;;;;;;5138843;27;20469;-63
2023/01/28 04:28:38;;;;;;;11.60;9.70;;;0.70;99.90;;;;;;5138988;27;20858;-63
2023/01/28 04:31:05;;;;;;;10.27;9.13;;;0.70;99.90;;;;;;5129800;27;20438;-63
2023/01/28 04:33:33;;;;;;;10.80;9.70;;;0.70;99.90;;;;;;5118174;28;20491;-63
2023/01/28 04:36:00;;;;;;;9.80;8.80;;;0.60;99.90;;;;;;5119125;27;20463;-63
2023/01/28 04:38:27;;;;;;;12.10;9.17;;;0.60;99.90;;;;;;5117875;28;20442;-63
2023/01/28 04:40:55;;;;;;;9.70;8.70;;;0.60;99.90;;;;;;5120629;27;20902;-63
2023/01/28 04:43:22;;;;;;;10.53;9.37;;;0.60;99.90;;;;;;5137264;27;20432;-63
2023/01/28 04:45:50;;;;;;;11.80;9.70;;;0.50;99.90;;;;;;5138038;27;20465;-63
2023/01/28 04:48:17;;;;;;;10.67;9.33;;;0.50;99.90;;;;;;5138329;27;20447;-63
2023/01/28 04:50:45;;;;;;;10.07;8.90;;;0.50;99.90;;;;;;5138471;27;20458;-63
2023/01/28 04:53:12;;;;;;;10.30;9.30;;;0.60;99.90;;;;;;5119488;28;20487;-63
2023/01/28 04:55:40;;;;;;;13.37;10.57;;;0.50;13.70;;;;;;5117604;28;20754;-62
2023/01/28 04:58:09;;;;;;;10.30;9.20;;;0.50;99.90;;;;;;5118095;28;20459;-63
2023/01/28 05:00:36;;;;;;;10.57;9.47;;;0.50;99.90;;;;;;5117801;28;20462;-63
2023/01/28 05:03:03;;;;;;;14.07;10.10;;;0.50;1.00;;;;;;5129782;28;20454;-62
2023/01/28 05:05:30;;;;;;;16.57;12.10;;;0.60;1.00;;;;;;5138221;27;20473;-63
2023/01/28 05:07:58;;;;;;;13.60;11.43;;;0.60;99.90;;;;;;5137911;27;20459;-62
2023/01/28 05:10:27;;;;;;;17.93;13.87;;;0.50;99.90;;;;;;5138750;27;20443;-62
2023/01/28 05:12:54;;;;;;;20.60;15.20;;;0.50;1.00;;;;;;5129216;27;20493;-63
2023/01/28 05:15:23;;;;;;;21.37;15.97;;;0.50;1.00;;;;;;5117279;28;20460;-62
2023/01/28 05:17:50;;;;;;;21.07;15.70;;;0.50;99.90;;;;;;5117768;28;20486;-63
2023/01/28 05:20:17;;;;;;;20.17;15.50;;;0.50;99.90;;;;;;5117546;28;20434;-63
2023/01/28 05:22:44;;;;;;;21.00;15.77;;;0.50;99.90;;;;;;5119819;28;20455;-63
2023/01/28 05:25:11;;;;;;;21.83;16.03;;;0.50;99.90;;;;;;5138623;27;20454;-63
2023/01/28 05:27:38;;;;;;;22.83;17.20;;;0.50;99.90;;;;;;5137756;27;20459;-63
2023/01/28 05:30:07;;;;;;;21.07;16.50;;;0.50;1.00;;;;;;5137933;27;20527;-63
2023/01/28 05:32:35;;;;;;;20.60;16.23;;;0.40;99.90;;;;;;5137211;27;20821;-62
2023/01/28 05:35:03;;;;;;;19.27;14.97;;;0.50;99.90;;;;;;5135705;27;20886;-63
2023/01/28 05:37:30;;;;;;;16.80;13.47;;;0.50;99.90;;;;;;5137606;27;20468;-63
2023/01/28 05:39:57;;;;;;;16.47;13.07;;;0.50;99.90;;;;;;5138284;27;20831;-63
2023/01/28 05:42:24;;;;;;;17.53;13.47;;;0.60;99.90;;;;;;5138296;27;20752;-63
2023/01/28 05:44:51;;;;;;;16.23;14.27;;;0.50;1.00;;;;;;5124796;27;20459;-64
2023/01/28 05:47:18;;;;;;;18.13;15.03;;;0.50;1.00;;;;;;5116985;28;20466;-64
2023/01/28 05:49:46;;;;;;;18.97;15.03;;;0.40;1.00;;;;;;5117519;28;20442;-64
2023/01/28 05:52:14;;;;;;;18.60;14.73;;;0.40;1.00;;;;;;5116771;28;20581;-64
2023/01/28 05:54:41;;;;;;;21.03;16.40;;;0.30;99.90;;;;;;5124838;27;20433;-64
2023/01/28 05:57:08;;;;;;;22.70;16.60;;;0.40;99.90;;;;;;5141498;27;20463;-64
2023/01/28 05:59:35;;;;;;;18.97;15.23;;;0.30;99.90;;;;;;5141128;27;20788;-64
2023/01/28 06:02:02;;;;;;;16.63;13.47;;;0.40;99.90;;;;;;5141505;27;20454;-64
2023/01/28 06:04:29;;;;;;;19.23;15.20;;;0.40;1.00;;;;;;5138883;27;20440;-64
2023/01/28 06:06:58;;;;;;;14.80;13.30;;;0.40;99.90;;;;;;5120744;28;20884;-64
2023/01/28 06:09:25;;;;;;;17.37;14.17;;;0.40;99.90;;;;;;5120414;28;20454;-64
2023/01/28 06:11:52;;;;;;;16.47;13.97;;;0.50;99.90;;;;;;5119222;28;20447;-64
2023/01/28 06:14:19;;;;;;;17.63;13.83;;;0.50;99.90;;;;;;5120655;27;20478;-64
2023/01/28 06:16:47;;;;;;;18.70;14.03;;;0.50;99.90;;;;;;5140052;27;20459;-65
2023/01/28 06:19:14;;;;;;;16.77;14.73;;;0.50;99.90;;;;;;5140398;27;20469;-64
2023/01/28 06:21:42;;;;;;;15.27;13.67;;;0.50;99.90;;;;;;5140483;27;20458;-65
2023/01/28 06:24:10;;;;;;;16.00;13.83;;;0.50;99.90;;;;;;5140836;27;20462;-65
2023/01/28 06:26:38;;;;;;;15.30;12.93;;;0.50;99.90;;;;;;5127011;27;20892;-65
2023/01/28 06:29:05;;;;;;;19.37;14.13;;;0.50;99.90;;;;;;5120046;28;20759;-65
2023/01/28 06:31:32;;;;;;;15.57;13.30;;;0.60;99.90;;;;;;5119296;28;20463;-65
2023/01/28 06:34:00;;;;;;;16.83;13.77;;;0.60;99.90;;;;;;5119615;28;20623;-65
2023/01/28 06:36:27;;;;;;;17.07;14.50;;;0.60;99.90;;;;;;5122555;27;20521;-65
2023/01/28 06:38:54;;;;;;;17.30;14.50;;;0.60;99.90;;;;;;5129307;27;20456;-65
2023/01/28 06:41:22;;;;;;;17.47;14.20;;;0.50;99.90;;;;;;5118941;28;20884;-65
2023/01/28 06:43:49;;;;;;;17.03;14.50;;;0.60;99.90;;;;;;5119421;28;20859;-65
2023/01/28 06:46:17;;;;;;;14.20;12.70;;;0.60;99.90;;;;;;5119330;28;20459;-65
2023/01/28 06:48:44;;;;;;;15.60;13.93;;;0.60;99.90;;;;;;5138607;27;20462;-65
2023/01/28 06:51:11;;;;;;;15.37;13.30;;;0.50;90.90;;;;;;5139272;27;20463;-65
2023/01/28 06:53:38;;;;;;;16.37;14.67;;;0.50;48.60;;;;;;5136467;27;20487;-65
2023/01/28 06:56:06;;;;;;;14.07;12.10;;;0.50;45.00;;;;;;5139859;27;20915;-65
2023/01/28 06:58:35;;;;;;;15.00;13.50;;;0.40;31.80;;;;;;5124545;27;20542;-65
2023/01/28 07:01:03;;;;;;;15.60;14.00;;;0.30;1.00;;;;;;5118774;28;20482;-65
2023/01/28 07:03:30;;;;;;;14.60;13.10;;;0.30;1.00;;;;;;5117894;28;20455;-65
2023/01/28 07:05:57;;;;;;;15.47;13.63;;;0.20;1.00;;;;;;5118016;28;20456;-65
2023/01/28 07:08:25;;;;;;;14.63;12.70;;;0.20;1.00;;;;;;5126952;27;20434;-65
2023/01/28 07:10:52;;;;;;;19.63;14.27;;;0.20;1.00;;;;;;5138054;27;20746;-65
2023/01/28 07:13:19;;;;;;;19.93;15.73;;;0.20;1.00;;;;;;5138965;27;20495;-65
2023/01/28 07:15:48;;;;;;;15.37;13.70;;;0.20;1.00;;;;;;5139475;27;20932;-65
2023/01/28 07:18:15;;;;;;;17.13;15.33;;;0.10;1.00;;;;;;5134735;27;20471;-65
2023/01/28 07:20:42;;;;;;;16.27;13.50;;;0.10;1.00;;;;;;5118266;28;20792;-65
2023/01/28 07:23:10;;;;;;;18.83;16.03;;;0.20;1.00;;;;;;5118510;27;20786;-65
2023/01/28 07:25:37;;;;;;;18.40;16.20;;;0.20;1.00;;;;;;5118594;28;20459;-65
2023/01/28 07:28:04;;;;;;;17.93;15.40;;;0.30;1.00;;;;;;5118955;28;20892;-65
2023/01/28 07:30:31;;;;;;;19.20;14.30;;;0.20;1.00;;;;;;5137490;27;20904;-65
2023/01/28 07:33:01;;;;;;;19.43;13.90;;;0.30;5.50;;;;;;5138761;27;20935;-65
2023/01/28 07:35:28;;;;;;;15.50;13.53;;;0.40;37.50;;;;;;5139006;27;20465;-65
2023/01/28 07:37:57;;;;;;;18.50;14.03;;;0.30;20.50;;;;;;5139128;27;20799;-65
2023/01/28 07:40:25;;;;;;;17.23;14.13;;;0.30;33.50;;;;;;5123689;27;20926;-65
2023/01/28 07:42:54;;;;;;;14.87;13.27;;;0.40;44.20;;;;;;5118376;28;20455;-65
2023/01/28 07:45:21;;;;;;;18.70;14.10;;;0.30;26.90;;;;;;5118287;28;20566;-65
2023/01/28 07:47:54;;;;;;;21.13;13.67;;;0.30;43.40;;;;;;5117442;27;20430;-65
2023/01/28 07:50:23;;;;;;;16.90;13.27;;;0.30;52.40;;;;;;5128228;27;20459;-64
2023/01/28 07:52:50;;;;;;;14.77;12.20;;;0.40;52.80;;;;;;5139433;27;20479;-65
2023/01/28 07:55:18;;;;;;;15.03;13.20;;;0.40;16.50;;;;;;5138932;27;20903;-65
2023/01/28 07:57:52;;;;;;;14.47;12.80;;;0.40;4.50;;;;;;5139654;27;20462;-64
2023/01/28 08:00:20;;;;;;;15.50;13.40;;;0.40;15.40;;;;;;5138021;27;20457;-64
2023/01/28 08:02:47;;;;;;;17.30;13.10;;;0.50;35.00;;;;;;5138877;27;20887;-64
2023/01/28 08:05:17;;;;;;;18.10;13.83;;;0.50;71.60;;;;;;5138722;27;20436;-65
2023/01/28 08:07:47;;;;;;;15.43;13.83;;;0.50;99.90;;;;;;5139091;27;20443;-65
2023/01/28 08:10:14;;;;;;;15.03;12.17;;;0.40;99.90;;;;;;5136316;27;20462;-64
2023/01/28 08:12:41;;;;;;;17.70;14.53;;;0.40;96.70;;;;;;5118639;28;20486;-64
2023/01/28 08:15:09;;;;;;;15.50;12.27;;;0.40;64.00;;;;;;5122009;27;20478;-64
2023/01/28 08:17:37;;;;;;;16.73;13.50;;;0.50;50.50;;;;;;5118416;28;20475;-65
2023/01/28 08:20:04;;;;;;;19.87;13.37;;;0.40;12.20;;;;;;5118514;28;20459;-65
2023/01/28 08:22:32;;;;;;;18.80;13.40;;;0.40;2.70;;;;;;5135740;27;20463;-65
2023/01/28 08:25:02;;;;;;;16.53;13.90;;;0.40;4.20;;;;;;5138642;27;20456;-65
2023/01/28 08:27:29;;;;;;;18.60;13.07;;;0.30;1.00;;;;;;5138710;27;20463;-65
2023/01/28 08:29:56;;;;;;;14.70;12.10;;;0.40;35.40;;;;;;5137760;27;20463;-65
2023/01/28 08:32:23;;;;;;;14.10;11.90;;;0.40;48.70;;;;;;5123853;27;20468;-64
2023/01/28 08:34:50;;;;;;;15.10;11.83;;;0.40;36.00;;;;;;5116285;28;20802;-64
2023/01/28 08:37:17;;;;;;;14.90;13.00;;;0.50;17.60;;;;;;5116141;28;20512;-64
2023/01/28 08:39:45;;;;;;;13.60;12.07;;;0.50;2.40;;;;;;5117838;27;20479;-64
2023/01/28 08:42:13;;;;;;;15.80;13.47;;;0.50;1.00;;;;;;5126009;27;20635;-65
2023/01/28 08:44:40;;;;;;;14.53;11.53;;;0.50;14.80;;;;;;5116589;28;20430;-64
2023/01/28 08:47:07;;;;;;;13.10;11.70;;;0.60;11.30;;;;;;5117066;28;20464;-65
2023/01/28 08:49:34;;;;;;;13.87;12.37;;;0.60;1.00;;;;;;5116580;28;20460;-65
2023/01/28 08:52:01;;;;;;;15.33;12.57;;;0.50;1.00;;;;;;5117843;28;20917;-65
2023/01/28 08:54:28;;;;;;;14.80;12.77;;;0.40;1.00;;;;;;5131024;27;20494;-65
2023/01/28 08:56:55;;;;;;;17.53;12.60;;;0.40;1.00;;;;;;5122077;27;20467;-65
2023/01/28 08:59:24;;;;;;;12.73;11.43;;;0.40;1.00;;;;;;5136646;27;20433;-65
2023/01/28 09:01:51;;;;;;;15.20;13.70;;;0.40;1.00;;;;;;5136737;28;20454;-65
2023/01/28 09:04:18;;;;;;;15.57;12.40;;;0.50;1.00;;;;;;5135390;28;20462;-64
2023/01/28 09:06:45;;;;;;;14.13;12.63;;;0.60;1.00;;;;;;5134606;27;20802;-64
2023/01/28 09:09:12;;;;;;;13.47;12.07;;;0.60;1.00;;;;;;5135722;27;20718;-64
2023/01/28 09:11:39;;;;;;;18.13;13.97;;;0.60;1.00;;;;;;5136518;27;20643;-64
2023/01/28 09:14:07;;;;;;;16.57;12.03;;;0.60;1.00;;;;;;5124587;27;20523;-64
2023/01/28 09:16:36;;;;;;;14.57;13.07;;;0.50;1.00;;;;;;5117208;28;20463;-65
2023/01/28 09:19:03;;;;;;;14.87;13.30;;;0.20;1.00;;;;;;5116942;28;20525;-65
2023/01/28 09:21:30;;;;;;;16.43;13.30;;;0.20;1.00;;;;;;5117514;28;20466;-65
2023/01/28 09:23:57;;;;;;;16.90;13.47;;;0.20;1.00;;;;;;5122752;28;20462;-65
2023/01/28 09:26:24;;;;;;;16.67;14.07;;;0.30;1.00;;;;;;5137945;27;20747;-65
2023/01/28 09:28:51;;;;;;;14.23;12.70;;;0.30;1.00;;;;;;5134527;27;20757;-65
2023/01/28 09:31:18;;;;;;;18.70;14.83;;;0.50;1.00;;;;;;5120543;28;20715;-65
2023/01/28 09:33:53;;;;;;;15.90;14.20;;;0.50;1.00;;;;;;5121090;27;20484;-65
2023/01/28 09:36:20;;;;;;;15.60;13.13;;;0.40;1.00;;;;;;5121777;28;20459;-65
2023/01/28 09:38:47;;;;;;;14.93;12.43;;;0.40;1.00;;;;;;5121692;27;20463;-65
2023/01/28 09:41:26;;;;;;;15.63;13.20;;;0.40;1.00;;;;;;5121035;28;20459;-65
2023/01/28 09:44:18;;;;;;;15.53;13.40;;;0.40;1.00;;;;;;5121529;28;20430;-65
2023/01/28 09:46:45;;;;;;;16.20;13.57;;;0.40;1.00;;;;;;5121544;28;20434;-65
2023/01/28 09:49:21;;;;;;;14.53;12.97;;;0.50;1.00;;;;;;5121035;28;20442;-65
2023/01/28 09:51:52;;;;;;;17.50;13.57;;;0.50;1.00;;;;;;5121401;28;20470;-65
2023/01/28 09:54:32;;;;;;;19.87;15.10;;;0.60;1.00;;;;;;5121229;28;20490;-65
2023/01/28 09:57:04;;;;;;;22.93;17.30;;;0.70;1.00;;;;;;5122561;27;20463;-65
2023/01/28 09:59:36;;;;;;;20.13;16.57;;;0.60;1.00;;;;;;5141723;27;20827;-65
2023/01/28 10:02:19;;;;;;;16.50;14.27;;;0.60;1.00;;;;;;5142230;27;20458;-65
2023/01/28 10:04:58;;;;;;;20.63;14.77;;;0.60;1.00;;;;;;5141704;27;20454;-65
2023/01/28 10:07:36;;;;;;;19.53;15.03;;;0.50;1.00;;;;;;5133479;27;20446;-65
2023/01/28 10:10:10;;;;;;;20.30;16.30;;;0.40;1.00;;;;;;5126647;27;20466;-65
2023/01/28 10:12:58;;;;;;;20.27;15.53;;;0.40;1.00;;;;;;5121408;28;20751;-65
2023/01/28 10:15:50;;;;;;;20.23;15.40;;;0.40;1.00;;;;;;5121319;27;20730;-65
2023/01/28 10:18:26;;;;;;;23.70;15.03;;;0.50;1.00;;;;;;5121667;27;20754;-65
2023/01/28 10:20:58;;;;;;;24.40;17.83;;;0.30;1.00;;;;;;5131216;27;20747;-65
2023/01/28 10:23:33;;;;;;;23.00;17.30;;;0.40;1.00;;;;;;5141155;27;20460;-65
2023/01/28 10:26:16;;;;;;;22.03;17.20;;;0.30;1.00;;;;;;5141098;27;20457;-65
2023/01/28 10:28:44;;;;;;;21.53;15.80;;;0.40;1.00;;;;;;5120426;28;20892;-65
2023/01/28 10:31:13;;;;;;;18.37;15.60;;;0.40;1.00;;;;;;5120264;27;20455;-65
2023/01/28 10:33:41;;;;;;;19.93;15.33;;;0.60;1.00;;;;;;5120743;28;20487;-65
2023/01/28 10:36:10;;;;;;;22.23;17.43;;;0.70;1.00;;;;;;5120247;28;20470;-65
2023/01/28 10:38:37;;;;;;;22.33;16.97;;;0.70;1.00;;;;;;5136574;27;20480;-65
2023/01/28 10:41:05;;;;;;;21.10;17.30;;;0.60;1.00;;;;;;5119586;28;20464;-65
2023/01/28 10:43:35;;;;;;;22.40;17.57;;;0.50;1.00;;;;;;5119615;27;20460;-65
2023/01/28 10:46:07;;;;;;;23.13;17.93;;;0.40;1.00;;;;;;5120444;28;20470;-65
2023/01/28 10:48:36;;;;;;;25.43;17.13;;;0.40;1.00;;;;;;5132333;27;20844;-66
2023/01/28 10:51:05;;;;;;;20.87;16.17;;;0.40;1.00;;;;;;5135070;27;20493;-65
2023/01/28 10:53:41;;;;;;;21.03;14.90;;;0.60;1.00;;;;;;5127038;27;20932;-65
2023/01/28 10:56:12;;;;;;;18.73;14.50;;;0.80;1.00;;;;;;5140958;27;20458;-65
2023/01/28 10:58:54;;;;;;;17.90;14.40;;;0.80;1.00;;;;;;5130687;27;20463;-66
2023/01/28 11:01:21;;;;;;;15.73;12.40;;;0.70;1.00;;;;;;5122242;27;20461;-66
2023/01/28 11:03:58;;;;;;;16.90;13.90;;;0.60;1.00;;;;;;5140199;27;20437;-66
2023/01/28 11:06:27;;;;;;;16.27;13.03;;;0.70;1.00;;;;;;5135364;27;20432;-66
2023/01/28 11:08:56;;;;;;;14.60;11.97;;;0.80;1.00;;;;;;5128832;27;20572;-66
2023/01/28 11:11:25;;;;;;;14.90;12.30;;;1.00;1.00;;;;;;5140281;27;20462;-66
2023/01/28 11:13:57;;;;;;;14.17;12.30;;;0.70;1.00;;;;;;5132225;27;20993;-67
2023/01/28 11:16:26;;;;;;;13.10;10.60;;;0.70;1.00;;;;;;5123345;27;20442;-67
2023/01/28 11:18:56;;;;;;;13.90;12.03;;;0.60;1.00;;;;;;5140314;27;20782;-67
2023/01/28 11:21:26;;;;;;;15.60;11.70;;;0.60;1.00;;;;;;5144726;27;20456;-67
2023/01/28 11:23:59;;;;;;;14.00;11.13;;;0.80;1.00;;;;;;5123493;27;20467;-67
2023/01/28 11:26:29;;;;;;;12.70;9.83;;;0.80;1.00;;;;;;5126159;27;20466;-67
2023/01/28 11:28:56;;;;;;;12.27;10.93;;;0.90;1.00;;;;;;5118525;27;20460;-67
2023/01/28 11:31:26;;;;;;;12.83;11.47;;;1.10;1.00;;;;;;5138702;27;20434;-67
2023/01/28 11:33:57;;;;;;;14.60;12.50;;;1.10;1.00;;;;;;5135077;27;20509;-67
2023/01/28 11:36:26;;;;;;;15.30;12.63;;;1.00;1.00;;;;;;5129195;27;20546;-68
2023/01/28 11:38:55;;;;;;;17.33;13.43;;;0.60;1.00;;;;;;5125746;27;20451;-67
2023/01/28 11:41:29;;;;;;;15.07;13.40;;;0.50;1.00;;;;;;5121483;27;20433;-67
2023/01/28 11:43:58;;;;;;;20.70;13.70;;;0.50;1.00;;;;;;5132044;27;20456;-67
2023/01/28 11:47:01;;;;;;;24.57;14.70;;;0.50;1.00;;;;;;5131458;27;20470;-67
2023/01/28 11:49:41;;;;;;;16.20;13.47;;;0.60;1.00;;;;;;5108947;28;20794;-67
2023/01/28 11:52:17;;;;;;;18.60;14.20;;;0.70;1.00;;;;;;5138156;27;20458;-67
2023/01/28 11:54:53;;;;;;;20.37;15.93;;;0.70;1.00;;;;;;5138686;27;20487;-67
2023/01/28 11:57:26;;;;;;;21.27;17.00;;;0.90;1.00;;;;;;5139226;27;20458;-66
2023/01/28 12:00:26;;;;;;;18.10;15.07;;;0.90;1.00;;;;;;5138961;27;20501;-67
2023/01/28 12:03:00;;;;;;;20.43;15.60;;;0.90;1.00;;;;;;5117259;28;20467;-66
2023/01/28 12:05:42;;;;;;;18.57;15.73;;;1.00;1.00;;;;;;5115520;28;20885;-67
2023/01/28 12:08:18;;;;;;;20.20;15.87;;;1.00;1.00;;;;;;5115523;28;20463;-67
2023/01/28 12:10:53;;;;;;;24.20;17.90;;;1.20;1.00;;;;;;5114697;27;20701;-66
2023/01/28 12:13:34;;;;;;;25.53;17.97;;;1.30;1.00;;;;;;5134538;27;20975;-66
2023/01/28 12:16:23;;;;;;;23.70;16.60;;;1.30;1.00;;;;;;5135559;27;20442;-66
2023/01/28 12:19:19;;;;;;;19.93;14.77;;;1.30;1.00;;;;;;5136473;27;20739;-67
2023/01/28 12:22:00;;;;;;;17.67;14.30;;;1.10;1.00;;;;;;5131457;27;20504;-67
2023/01/28 12:24:42;;;;;;;18.63;13.90;;;0.90;1.00;;;;;;5115885;28;20458;-67
2023/01/28 12:27:25;;;;;;;17.30;13.73;;;0.80;1.00;;;;;;5116715;27;20456;-66
2023/01/28 12:30:03;;;;;;;19.30;14.70;;;0.80;1.00;;;;;;5116813;28;20868;-67
2023/01/28 12:32:40;;;;;;;24.03;16.63;;;0.80;1.00;;;;;;5129878;27;20482;-66
2023/01/28 12:35:35;;;;;;;28.37;19.20;;;0.90;1.00;;;;;;5135412;27;20486;-66
2023/01/28 12:38:11;;;;;;;25.90;19.07;;;1.10;1.00;;;;;;5135121;27;20505;-66
2023/01/28 12:40:53;;;;;;;26.70;20.43;;;1.20;1.00;;;;;;5135987;27;20472;-66
2023/01/28 12:43:26;;;;;;;26.27;19.70;;;1.20;1.00;;;;;;5131228;27;20471;-66
2023/01/28 12:45:59;;;;;;;28.80;19.83;;;1.20;1.00;;;;;;5134628;27;20465;-66
2023/01/28 12:48:33;;;;;;;29.80;22.00;;;1.30;1.00;;;;;;5135790;27;20447;-66
2023/01/28 12:51:04;;;;;;;26.83;19.50;;;1.40;1.00;;;;;;5136083;27;20462;-66
2023/01/28 12:53:40;;;;;;;29.20;21.70;;;1.60;1.00;;;;;;5138506;27;20437;-66
2023/01/28 12:56:14;;;;;;;27.93;20.87;;;1.80;1.00;;;;;;5138655;28;20490;-66
2023/01/28 12:58:49;;;;;;;27.57;21.17;;;2.00;1.00;;;;;;5138565;27;20458;-66
2023/01/28 13:01:24;;;;;;;27.00;21.43;;;2.10;1.00;;;;;;5136924;27;20469;-66
2023/01/28 13:03:58;;;;;;;27.27;21.00;;;2.30;1.00;;;;;;5138067;27;20466;-66
2023/01/28 13:06:32;;;;;;;28.50;21.10;;;2.20;1.00;;;;;;5137543;27;20459;-66
2023/01/28 13:09:02;;;;;;;25.57;20.50;;;2.30;1.00;;;;;;5138209;27;20480;-66
2023/01/28 13:11:35;;;;;;;25.90;20.37;;;2.40;1.00;;;;;;5136307;27;20459;-66
2023/01/28 13:14:03;;;;;;;22.70;18.90;;;2.60;1.00;;;;;;5137282;27;20783;-66
2023/01/28 13:16:33;;;;;;;22.60;17.80;;;2.70;1.00;;;;;;5138356;27;20465;-65
2023/01/28 13:19:09;;;;;;;23.47;17.80;;;2.70;1.00;;;;;;5138379;27;20473;-66
2023/01/28 13:21:36;;;;;;;20.60;16.63;;;2.80;1.00;;;;;;5124519;27;20787;-66
2023/01/28 13:24:21;;;;;;;17.30;14.30;;;2.90;1.00;;;;;;5117544;28;20459;-66
2023/01/28 13:26:49;;;;;;;18.77;15.80;;;2.70;1.00;;;;;;5117445;28;20472;-66
2023/01/28 13:29:30;;;;;;;13.50;12.10;;;2.60;1.00;;;;;;5117711;28;20763;-66
2023/01/28 13:32:00;;;;;;;13.23;11.83;;;2.40;1.00;;;;;;5129265;28;20756;-66
2023/01/28 13:34:32;;;;;;;11.60;10.40;;;2.30;1.00;;;;;;5138106;27;20786;-66
2023/01/28 13:37:03;;;;;;;11.93;10.77;;;2.10;1.00;;;;;;5119134;27;20474;-66
2023/01/28 13:39:33;;;;;;;11.90;10.80;;;1.80;1.00;;;;;;5120119;28;20459;-66
2023/01/28 13:42:22;;;;;;;12.97;10.57;;;1.60;1.00;;;;;;5136294;27;20462;-66